createdAt,value
2019-05-31T00:00:15.067Z,999.85
2019-05-31T00:01:15.058Z,999.83
2019-05-31T00:02:15.058Z,999.83
2019-05-31T00:03:15.059Z,999.82
2019-05-31T00:04:15.059Z,999.76
2019-05-31T00:05:15.059Z,999.76
2019-05-31T00:06:15.057Z,999.73
2019-05-31T00:07:15.066Z,999.74
2019-05-31T00:08:15.056Z,999.75
2019-05-31T00:09:15.056Z,999.75
2019-05-31T00:10:15.058Z,999.74
2019-05-31T00:11:15.063Z,999.77
2019-05-31T00:12:15.058Z,999.74
2019-05-31T00:13:15.057Z,999.76
2019-05-31T00:14:20.223Z,999.76
2019-05-31T00:15:15.053Z,999.73
2019-05-31T00:16:15.055Z,999.76
2019-05-31T00:17:15.059Z,999.79
2019-05-31T00:18:15.056Z,999.78
2019-05-31T00:19:15.061Z,999.78
2019-05-31T00:20:15.056Z,999.8
2019-05-31T00:21:15.068Z,999.79
2019-05-31T00:22:15.575Z,999.77
2019-05-31T00:23:15.058Z,999.77
2019-05-31T00:24:15.059Z,999.79
2019-05-31T00:25:15.051Z,999.82
2019-05-31T00:26:15.057Z,999.8
2019-05-31T00:27:15.056Z,999.79
2019-05-31T00:28:15.055Z,999.81
2019-05-31T00:29:15.050Z,999.81
2019-05-31T00:30:15.049Z,999.79
2019-05-31T00:31:15.051Z,999.76
2019-05-31T00:32:15.056Z,999.77
2019-05-31T00:33:15.048Z,999.74
2019-05-31T00:34:15.049Z,999.74
2019-05-31T00:35:15.048Z,999.72
2019-05-31T00:36:15.047Z,999.72
2019-05-31T00:37:15.047Z,999.75
2019-05-31T00:38:15.044Z,999.73
2019-05-31T00:39:15.049Z,999.73
2019-05-31T00:40:15.043Z,999.73
2019-05-31T00:41:15.048Z,999.7
2019-05-31T00:42:15.045Z,999.71
2019-05-31T00:43:15.044Z,999.75
2019-05-31T00:44:15.041Z,999.71
2019-05-31T00:45:15.045Z,999.77
2019-05-31T00:46:15.047Z,999.76
2019-05-31T00:47:15.053Z,999.78
2019-05-31T00:48:15.046Z,999.78
2019-05-31T00:49:15.051Z,999.79
2019-05-31T00:50:15.047Z,999.76
2019-05-31T00:51:15.044Z,999.81
2019-05-31T00:52:15.048Z,999.78
2019-05-31T00:53:15.049Z,999.76
2019-05-31T00:54:15.049Z,999.78
2019-05-31T00:55:15.046Z,999.79
2019-05-31T00:56:15.044Z,999.79
2019-05-31T00:57:15.049Z,999.81
2019-05-31T00:58:15.051Z,999.82
2019-05-31T00:59:15.052Z,999.8
2019-05-31T01:00:15.041Z,999.81
2019-05-31T01:01:15.060Z,999.8
2019-05-31T01:02:15.052Z,999.83
2019-05-31T01:03:15.045Z,999.8
2019-05-31T01:04:15.036Z,999.82
2019-05-31T01:05:15.046Z,999.81
2019-05-31T01:06:15.037Z,999.81
2019-05-31T01:07:15.038Z,999.78
2019-05-31T01:08:15.047Z,999.78
2019-05-31T01:09:15.036Z,999.78
2019-05-31T01:10:15.034Z,999.76
2019-05-31T01:11:15.035Z,999.78
2019-05-31T01:12:15.035Z,999.79
2019-05-31T01:13:15.033Z,999.75
2019-05-31T01:14:15.032Z,999.76
2019-05-31T01:15:15.036Z,999.78
2019-05-31T01:16:15.033Z,999.76
2019-05-31T01:17:15.031Z,999.75
2019-05-31T01:18:15.033Z,999.76
2019-05-31T01:19:15.031Z,999.74
2019-05-31T01:20:15.038Z,999.76
2019-05-31T01:21:15.030Z,999.75
2019-05-31T01:22:15.031Z,999.77
2019-05-31T01:23:15.028Z,999.77
2019-05-31T01:24:15.027Z,999.8
2019-05-31T01:25:15.027Z,999.76
2019-05-31T01:26:15.031Z,999.78
2019-05-31T01:27:15.025Z,999.76
2019-05-31T01:28:15.029Z,999.74
2019-05-31T01:29:15.029Z,999.74
2019-05-31T01:30:15.026Z,999.74
2019-05-31T01:31:15.025Z,999.79
2019-05-31T01:32:15.029Z,999.78
2019-05-31T01:33:15.025Z,999.77
2019-05-31T01:34:15.027Z,999.8
2019-05-31T01:35:15.023Z,999.86
2019-05-31T01:36:15.022Z,999.86
2019-05-31T01:37:15.020Z,999.82
2019-05-31T01:38:15.034Z,999.8
2019-05-31T01:39:15.021Z,999.83
2019-05-31T01:40:15.021Z,999.81
2019-05-31T01:41:15.021Z,999.78
2019-05-31T01:42:15.019Z,999.76
2019-05-31T01:43:15.811Z,999.76
2019-05-31T01:44:15.020Z,999.78
2019-05-31T01:45:18.631Z,999.8
2019-05-31T01:46:15.019Z,999.75
2019-05-31T01:47:15.816Z,999.74
2019-05-31T01:48:15.020Z,999.78
2019-05-31T01:49:15.018Z,999.75
2019-05-31T01:50:15.019Z,999.68
2019-05-31T01:51:15.014Z,999.71
2019-05-31T01:52:15.071Z,999.7
2019-05-31T01:53:15.014Z,999.71
2019-05-31T01:54:15.025Z,999.7
2019-05-31T01:55:15.012Z,999.73
2019-05-31T01:56:15.012Z,999.71
2019-05-31T01:57:15.012Z,999.72
2019-05-31T01:58:15.011Z,999.71
2019-05-31T01:59:15.011Z,999.76
2019-05-31T02:00:15.011Z,999.79
2019-05-31T02:01:15.013Z,999.78
2019-05-31T02:02:15.384Z,999.78
2019-05-31T02:03:16.354Z,999.78
2019-05-31T02:04:16.203Z,999.78
2019-05-31T02:05:15.024Z,999.75
2019-05-31T02:06:17.643Z,999.74
2019-05-31T02:07:16.738Z,999.73
2019-05-31T02:08:15.020Z,999.7
2019-05-31T02:09:15.005Z,999.71
2019-05-31T02:10:15.018Z,999.68
2019-05-31T02:11:15.008Z,999.66
2019-05-31T02:12:15.006Z,999.61
2019-05-31T02:13:15.389Z,999.64
2019-05-31T02:14:15.004Z,999.66
2019-05-31T02:15:29.474Z,999.66
2019-05-31T02:16:15.000Z,999.65
2019-05-31T02:17:15.442Z,999.64
2019-05-31T02:18:14.999Z,999.66
2019-05-31T02:19:15.835Z,999.65
2019-05-31T02:20:14.998Z,999.65
2019-05-31T02:21:15.402Z,999.62
2019-05-31T02:22:14.997Z,999.64
2019-05-31T02:23:15.958Z,999.64
2019-05-31T02:24:14.997Z,999.67
2019-05-31T02:25:16.262Z,999.63
2019-05-31T02:26:15.278Z,999.6
2019-05-31T02:27:15.366Z,999.61
2019-05-31T02:28:15.595Z,999.59
2019-05-31T02:29:15.648Z,999.59
2019-05-31T02:30:19.288Z,999.57
2019-05-31T02:31:16.705Z,999.57
2019-05-31T02:32:15.943Z,999.6
2019-05-31T02:33:17.126Z,999.61
2019-05-31T02:34:15.381Z,999.64
2019-05-31T02:35:16.040Z,999.62
2019-05-31T02:36:15.646Z,999.63
2019-05-31T02:37:15.778Z,999.59
2019-05-31T02:38:16.406Z,999.59
2019-05-31T02:39:16.597Z,999.61
2019-05-31T02:40:16.783Z,999.61
2019-05-31T02:41:16.284Z,999.61
2019-05-31T02:42:15.517Z,999.64
2019-05-31T02:43:16.605Z,999.62
2019-05-31T02:44:16.022Z,999.62
2019-05-31T02:45:16.879Z,999.66
2019-05-31T02:46:15.253Z,999.67
2019-05-31T02:47:16.144Z,999.67
2019-05-31T02:48:16.606Z,999.68
2019-05-31T02:49:15.963Z,999.67
2019-05-31T02:50:15.696Z,999.68
2019-05-31T02:51:15.558Z,999.65
2019-05-31T02:52:16.876Z,999.72
2019-05-31T02:53:16.722Z,999.71
2019-05-31T02:54:16.699Z,999.7
2019-05-31T02:55:16.588Z,999.7
2019-05-31T02:56:16.781Z,999.69
2019-05-31T02:57:15.609Z,999.69
2019-05-31T02:58:15.118Z,999.71
2019-05-31T02:59:15.137Z,999.7
2019-05-31T03:00:17.647Z,999.7
2019-05-31T03:01:16.344Z,999.68
2019-05-31T03:02:15.424Z,999.73
2019-05-31T03:03:15.547Z,999.73
2019-05-31T03:04:15.497Z,999.73
2019-05-31T03:05:16.906Z,999.74
2019-05-31T03:06:16.215Z,999.75
2019-05-31T03:07:16.014Z,999.76
2019-05-31T03:08:16.156Z,999.79
2019-05-31T03:09:16.062Z,999.81
2019-05-31T03:10:17.309Z,999.8
2019-05-31T03:11:16.984Z,999.81
2019-05-31T03:12:16.281Z,999.74
2019-05-31T03:13:16.712Z,999.8
2019-05-31T03:14:14.952Z,999.79
2019-05-31T03:15:16.813Z,999.73
2019-05-31T03:16:15.336Z,999.77
2019-05-31T03:17:15.319Z,999.76
2019-05-31T03:18:15.197Z,999.78
2019-05-31T03:19:15.526Z,999.77
2019-05-31T03:20:15.972Z,999.77
2019-05-31T03:21:16.707Z,999.75
2019-05-31T03:22:16.414Z,999.76
2019-05-31T03:23:16.007Z,999.78
2019-05-31T03:24:16.543Z,999.75
2019-05-31T03:25:16.483Z,999.73
2019-05-31T03:26:16.359Z,999.74
2019-05-31T03:27:16.565Z,999.74
2019-05-31T03:28:15.362Z,999.77
2019-05-31T03:29:15.141Z,999.74
2019-05-31T03:30:19.213Z,999.83
2019-05-31T03:31:19.359Z,999.86
2019-05-31T03:32:18.953Z,999.79
2019-05-31T03:33:16.406Z,999.85
2019-05-31T03:34:16.873Z,999.86
2019-05-31T03:35:17.279Z,999.85
2019-05-31T03:36:16.653Z,999.84
2019-05-31T03:37:16.487Z,999.86
2019-05-31T03:38:16.375Z,999.86
2019-05-31T03:39:16.623Z,999.84
2019-05-31T03:40:16.774Z,999.86
2019-05-31T03:41:16.584Z,999.79
2019-05-31T03:42:16.617Z,999.79
2019-05-31T03:43:16.806Z,999.81
2019-05-31T03:44:16.631Z,999.79
2019-05-31T03:45:15.413Z,999.83
2019-05-31T03:46:27.286Z,999.79
2019-05-31T03:47:16.839Z,999.83
2019-05-31T03:48:15.643Z,999.8
2019-05-31T03:49:16.411Z,999.81
2019-05-31T03:50:14.916Z,999.82
2019-05-31T03:51:16.247Z,999.84
2019-05-31T03:52:14.914Z,999.8
2019-05-31T03:53:15.259Z,999.87
2019-05-31T03:54:15.328Z,999.83
2019-05-31T03:55:15.739Z,999.87
2019-05-31T03:56:15.124Z,999.85
2019-05-31T03:57:15.297Z,999.88
2019-05-31T03:58:15.469Z,999.87
2019-05-31T03:59:15.197Z,999.87
2019-05-31T04:00:15.756Z,999.84
2019-05-31T04:01:15.206Z,999.88
2019-05-31T04:02:15.657Z,999.86
2019-05-31T04:03:16.327Z,999.87
2019-05-31T04:04:15.628Z,999.9
2019-05-31T04:05:16.616Z,999.89
2019-05-31T04:06:15.480Z,999.88
2019-05-31T04:07:16.195Z,999.89
2019-05-31T04:08:15.629Z,999.88
2019-05-31T04:09:16.567Z,999.89
2019-05-31T04:10:16.056Z,999.93
2019-05-31T04:11:15.139Z,999.91
2019-05-31T04:12:15.954Z,999.91
2019-05-31T04:13:15.844Z,999.96
2019-05-31T04:14:16.389Z,999.95
2019-05-31T04:15:15.330Z,999.96
2019-05-31T04:16:16.250Z,999.99
2019-05-31T04:17:15.351Z,999.94
2019-05-31T04:18:16.312Z,999.98
2019-05-31T04:19:15.276Z,999.99
2019-05-31T04:20:15.722Z,999.97
2019-05-31T04:21:15.293Z,1000
2019-05-31T04:22:15.367Z,999.97
2019-05-31T04:23:15.695Z,1000
2019-05-31T04:24:15.641Z,999.98
2019-05-31T04:25:16.798Z,999.96
2019-05-31T04:26:15.835Z,999.98
2019-05-31T04:27:15.748Z,999.98
2019-05-31T04:28:15.951Z,1000.01
2019-05-31T04:29:15.841Z,1000.01
2019-05-31T04:30:15.936Z,1000.01
2019-05-31T04:31:15.708Z,1000.02
2019-05-31T04:32:15.608Z,1000.05
2019-05-31T04:33:15.634Z,1000.06
2019-05-31T04:34:15.883Z,1000.06
2019-05-31T04:35:16.221Z,1000.06
2019-05-31T04:36:16.071Z,1000.09
2019-05-31T04:37:15.763Z,1000.09
2019-05-31T04:38:15.820Z,1000.1
2019-05-31T04:39:16.006Z,1000.06
2019-05-31T04:40:16.224Z,1000.06
2019-05-31T04:41:16.389Z,1000.08
2019-05-31T04:42:16.252Z,1000.09
2019-05-31T04:43:16.164Z,1000.11
2019-05-31T04:44:16.186Z,1000.09
2019-05-31T04:45:16.027Z,1000.12
2019-05-31T04:46:16.018Z,1000.07
2019-05-31T04:47:16.099Z,1000.1
2019-05-31T04:48:16.147Z,1000.12
2019-05-31T04:49:16.092Z,1000.13
2019-05-31T04:50:15.986Z,1000.12
2019-05-31T04:51:16.100Z,1000.14
2019-05-31T04:52:16.400Z,1000.13
2019-05-31T04:53:16.269Z,1000.13
2019-05-31T04:54:16.236Z,1000.12
2019-05-31T04:55:16.311Z,1000.16
2019-05-31T04:56:16.296Z,1000.12
2019-05-31T04:57:16.245Z,1000.16
2019-05-31T04:58:16.778Z,1000.16
2019-05-31T04:59:16.140Z,1000.13
2019-05-31T05:00:16.680Z,1000.16
2019-05-31T05:01:16.526Z,1000.15
2019-05-31T05:02:16.378Z,1000.18
2019-05-31T05:03:17.035Z,1000.18
2019-05-31T05:04:16.166Z,1000.23
2019-05-31T05:05:16.441Z,1000.21
2019-05-31T05:06:16.466Z,1000.23
2019-05-31T05:07:16.382Z,1000.24
2019-05-31T05:08:16.428Z,1000.24
2019-05-31T05:09:16.455Z,1000.27
2019-05-31T05:10:16.515Z,1000.29
2019-05-31T05:11:16.337Z,1000.29
2019-05-31T05:12:16.451Z,1000.3
2019-05-31T05:13:16.181Z,1000.29
2019-05-31T05:14:16.412Z,1000.28
2019-05-31T05:15:16.309Z,1000.28
2019-05-31T05:16:16.430Z,1000.26
2019-05-31T05:17:28.241Z,1000.29
2019-05-31T05:18:14.848Z,1000.31
2019-05-31T05:19:14.842Z,1000.29
2019-05-31T05:20:14.842Z,1000.29
2019-05-31T05:21:14.839Z,1000.34
2019-05-31T05:22:14.840Z,1000.38
2019-05-31T05:23:14.840Z,1000.32
2019-05-31T05:24:16.747Z,1000.35
2019-05-31T05:25:14.840Z,1000.33
2019-05-31T05:26:14.835Z,1000.33
2019-05-31T05:27:14.845Z,1000.3
2019-05-31T05:28:14.835Z,1000.35
2019-05-31T05:29:14.832Z,1000.33
2019-05-31T05:30:14.834Z,1000.31
2019-05-31T05:31:14.831Z,1000.31
2019-05-31T05:32:14.833Z,1000.33
2019-05-31T05:33:14.829Z,1000.35
2019-05-31T05:34:14.830Z,1000.33
2019-05-31T05:35:14.831Z,1000.34
2019-05-31T05:36:14.833Z,1000.31
2019-05-31T05:37:14.827Z,1000.31
2019-05-31T05:38:14.829Z,1000.37
2019-05-31T05:39:14.829Z,1000.32
2019-05-31T05:40:14.826Z,1000.41
2019-05-31T05:41:14.832Z,1000.36
2019-05-31T05:42:14.828Z,1000.42
2019-05-31T05:43:14.826Z,1000.4
2019-05-31T05:44:14.831Z,1000.42
2019-05-31T05:45:14.826Z,1000.39
2019-05-31T05:46:14.865Z,1000.37
2019-05-31T05:47:14.843Z,1000.36
2019-05-31T05:48:14.823Z,1000.43
2019-05-31T05:49:14.831Z,1000.38
2019-05-31T05:50:14.825Z,1000.4
2019-05-31T05:51:14.822Z,1000.43
2019-05-31T05:52:14.830Z,1000.4
2019-05-31T05:53:14.820Z,1000.42
2019-05-31T05:54:14.845Z,1000.41
2019-05-31T05:55:14.824Z,1000.43
2019-05-31T05:56:14.823Z,1000.41
2019-05-31T05:57:14.828Z,1000.43
2019-05-31T05:58:14.820Z,1000.41
2019-05-31T05:59:14.819Z,1000.41
2019-05-31T06:00:14.817Z,1000.44
2019-05-31T06:01:14.822Z,1000.46
2019-05-31T06:02:14.823Z,1000.45
2019-05-31T06:03:14.819Z,1000.42
2019-05-31T06:04:14.823Z,1000.43
2019-05-31T06:05:14.818Z,1000.44
2019-05-31T06:06:14.828Z,1000.43
2019-05-31T06:07:14.816Z,1000.42
2019-05-31T06:08:14.816Z,1000.46
2019-05-31T06:09:14.817Z,1000.42
2019-05-31T06:10:14.818Z,1000.44
2019-05-31T06:11:14.818Z,1000.42
2019-05-31T06:12:14.815Z,1000.46
2019-05-31T06:13:14.819Z,1000.46
2019-05-31T06:14:14.815Z,1000.42
2019-05-31T06:15:14.820Z,1000.46
2019-05-31T06:16:14.816Z,1000.43
2019-05-31T06:17:14.845Z,1000.47
2019-05-31T06:18:14.816Z,1000.43
2019-05-31T06:19:14.814Z,1000.45
2019-05-31T06:20:14.815Z,1000.46
2019-05-31T06:21:14.820Z,1000.41
2019-05-31T06:22:14.816Z,1000.46
2019-05-31T06:23:14.826Z,1000.45
2019-05-31T06:24:14.813Z,1000.44
2019-05-31T06:25:14.815Z,1000.42
2019-05-31T06:26:14.814Z,1000.41
2019-05-31T06:27:14.815Z,1000.45
2019-05-31T06:28:14.825Z,1000.42
2019-05-31T06:29:14.813Z,1000.43
2019-05-31T06:30:14.816Z,1000.44
2019-05-31T06:31:14.825Z,1000.46
2019-05-31T06:32:14.813Z,1000.44
2019-05-31T06:33:14.816Z,1000.46
2019-05-31T06:34:14.812Z,1000.49
2019-05-31T06:35:14.823Z,1000.46
2019-05-31T06:36:14.818Z,1000.46
2019-05-31T06:37:14.815Z,1000.5
2019-05-31T06:38:14.812Z,1000.52
2019-05-31T06:39:14.813Z,1000.47
2019-05-31T06:40:14.821Z,1000.45
2019-05-31T06:41:14.816Z,1000.5
2019-05-31T06:42:14.814Z,1000.51
2019-05-31T06:43:14.816Z,1000.5
2019-05-31T06:44:14.813Z,1000.53
2019-05-31T06:45:14.815Z,1000.54
2019-05-31T06:46:14.819Z,1000.53
2019-05-31T06:47:14.817Z,1000.51
2019-05-31T06:48:19.147Z,1000.53
2019-05-31T06:49:14.820Z,1000.54
2019-05-31T06:50:14.819Z,1000.54
2019-05-31T06:51:14.818Z,1000.53
2019-05-31T06:52:14.821Z,1000.56
2019-05-31T06:53:14.822Z,1000.55
2019-05-31T06:54:14.822Z,1000.57
2019-05-31T06:55:15.639Z,1000.58
2019-05-31T06:56:14.825Z,1000.52
2019-05-31T06:57:14.825Z,1000.56
2019-05-31T06:58:14.826Z,1000.57
2019-05-31T06:59:14.826Z,1000.56
2019-05-31T07:00:14.828Z,1000.61
2019-05-31T07:01:14.831Z,1000.57
2019-05-31T07:02:14.828Z,1000.56
2019-05-31T07:03:14.829Z,1000.57
2019-05-31T07:04:14.840Z,1000.53
2019-05-31T07:05:14.832Z,1000.61
2019-05-31T07:06:14.836Z,1000.61
2019-05-31T07:07:14.836Z,1000.62
2019-05-31T07:08:14.835Z,1000.58
2019-05-31T07:09:14.837Z,1000.63
2019-05-31T07:10:14.856Z,1000.62
2019-05-31T07:11:14.842Z,1000.56
2019-05-31T07:12:17.542Z,1000.58
2019-05-31T07:13:14.847Z,1000.54
2019-05-31T07:14:14.845Z,1000.61
2019-05-31T07:15:14.847Z,1000.62
2019-05-31T07:16:14.848Z,1000.61
2019-05-31T07:17:14.849Z,1000.58
2019-05-31T07:18:14.853Z,1000.58
2019-05-31T07:19:14.854Z,1000.62
2019-05-31T07:20:14.852Z,1000.6
2019-05-31T07:21:14.856Z,1000.62
2019-05-31T07:22:14.860Z,1000.63
2019-05-31T07:23:30.746Z,1000.6
2019-05-31T07:24:14.872Z,1000.66
2019-05-31T07:25:14.862Z,1000.64
2019-05-31T07:26:14.865Z,1000.62
2019-05-31T07:27:14.874Z,1000.62
2019-05-31T07:28:14.869Z,1000.63
2019-05-31T07:29:30.559Z,1000.66
2019-05-31T07:30:14.877Z,1000.68
2019-05-31T07:31:14.878Z,1000.68
2019-05-31T07:32:14.879Z,1000.66
2019-05-31T07:33:14.881Z,1000.67
2019-05-31T07:34:14.886Z,1000.67
2019-05-31T07:35:14.885Z,1000.67
2019-05-31T07:36:14.889Z,1000.7
2019-05-31T07:37:30.711Z,1000.7
2019-05-31T07:38:14.891Z,1000.7
2019-05-31T07:39:14.911Z,1000.7
2019-05-31T07:40:14.895Z,1000.71
2019-05-31T07:41:14.900Z,1000.73
2019-05-31T07:42:14.930Z,1000.69
2019-05-31T07:43:14.902Z,1000.69
2019-05-31T07:44:14.906Z,1000.71
2019-05-31T07:45:14.908Z,1000.73
2019-05-31T07:46:14.911Z,1000.75
2019-05-31T07:47:14.916Z,1000.76
2019-05-31T07:48:14.916Z,1000.75
2019-05-31T07:49:14.927Z,1000.77
2019-05-31T07:50:14.920Z,1000.78
2019-05-31T07:51:14.924Z,1000.78
2019-05-31T07:52:23.717Z,1000.77
2019-05-31T07:53:14.928Z,1000.79
2019-05-31T07:54:14.942Z,1000.78
2019-05-31T07:55:14.937Z,1000.81
2019-05-31T07:56:14.945Z,1000.77
2019-05-31T07:57:14.944Z,1000.77
2019-05-31T07:58:15.237Z,1000.79
2019-05-31T07:59:14.947Z,1000.74
2019-05-31T08:00:14.953Z,1000.76
2019-05-31T08:01:14.954Z,1000.74
2019-05-31T08:02:14.966Z,1000.71
2019-05-31T08:03:14.966Z,1000.74
2019-05-31T08:04:14.973Z,1000.74
2019-05-31T08:05:14.965Z,1000.68
2019-05-31T08:06:14.973Z,1000.73
2019-05-31T08:07:14.972Z,1000.72
2019-05-31T08:08:14.976Z,1000.73
2019-05-31T08:09:14.984Z,1000.72
2019-05-31T08:10:14.977Z,1000.76
2019-05-31T08:11:14.983Z,1000.71
2019-05-31T08:12:14.985Z,1000.73
2019-05-31T08:13:14.986Z,1000.77
2019-05-31T08:14:15.000Z,1000.74
2019-05-31T08:15:14.996Z,1000.72
2019-05-31T08:16:15.000Z,1000.75
2019-05-31T08:17:15.002Z,1000.73
2019-05-31T08:18:15.009Z,1000.7
2019-05-31T08:19:16.321Z,1000.74
2019-05-31T08:20:15.013Z,1000.69
2019-05-31T08:21:15.014Z,1000.72
2019-05-31T08:22:15.033Z,1000.71
2019-05-31T08:23:15.019Z,1000.71
2019-05-31T08:24:20.764Z,1000.7
2019-05-31T08:25:15.022Z,1000.71
2019-05-31T08:26:25.516Z,1000.67
2019-05-31T08:27:15.029Z,1000.69
2019-05-31T08:28:15.043Z,1000.69
2019-05-31T08:29:15.035Z,1000.67
2019-05-31T08:30:15.041Z,1000.72
2019-05-31T08:31:15.042Z,1000.7
2019-05-31T08:32:15.053Z,1000.68
2019-05-31T08:33:15.049Z,1000.69
2019-05-31T08:34:15.053Z,1000.69
2019-05-31T08:35:15.474Z,1000.71
2019-05-31T08:36:15.060Z,1000.76
2019-05-31T08:37:15.064Z,1000.7
2019-05-31T08:38:15.068Z,1000.69
2019-05-31T08:39:15.071Z,1000.66
2019-05-31T08:40:15.071Z,1000.67
2019-05-31T08:41:15.075Z,1000.66
2019-05-31T08:42:15.251Z,1000.74
2019-05-31T08:43:15.080Z,1000.7
2019-05-31T08:44:15.085Z,1000.69
2019-05-31T08:45:15.087Z,1000.73
2019-05-31T08:46:15.092Z,1000.61
2019-05-31T08:47:15.092Z,1000.64
2019-05-31T08:48:15.096Z,1000.62
2019-05-31T08:49:30.679Z,1000.65
2019-05-31T08:50:15.121Z,1000.66
2019-05-31T08:51:15.107Z,1000.63
2019-05-31T08:52:15.113Z,1000.64
2019-05-31T08:53:15.120Z,1000.63
2019-05-31T08:54:15.120Z,1000.63
2019-05-31T08:55:15.122Z,1000.65
2019-05-31T08:56:15.129Z,1000.65
2019-05-31T08:57:15.131Z,1000.61
2019-05-31T08:58:15.136Z,1000.64
2019-05-31T08:59:15.150Z,1000.61
2019-05-31T09:00:15.141Z,1000.64
2019-05-31T09:01:15.145Z,1000.63
2019-05-31T09:02:15.150Z,1000.61
2019-05-31T09:03:15.151Z,1000.63
2019-05-31T09:04:15.152Z,1000.6
2019-05-31T09:05:15.157Z,1000.62
2019-05-31T09:06:15.171Z,1000.57
2019-05-31T09:07:15.164Z,1000.58
2019-05-31T09:08:15.166Z,1000.62
2019-05-31T09:09:15.172Z,1000.58
2019-05-31T09:10:15.194Z,1000.58
2019-05-31T09:11:15.178Z,1000.55
2019-05-31T09:12:15.183Z,1000.54
2019-05-31T09:13:15.188Z,1000.52
2019-05-31T09:14:15.195Z,1000.55
2019-05-31T09:15:15.193Z,1000.53
2019-05-31T09:16:15.208Z,1000.53
2019-05-31T09:17:15.207Z,1000.5
2019-05-31T09:18:15.216Z,1000.49
2019-05-31T09:19:15.218Z,1000.54
2019-05-31T09:20:15.214Z,1000.51
2019-05-31T09:21:15.220Z,1000.51
2019-05-31T09:22:15.221Z,1000.55
2019-05-31T09:23:15.226Z,1000.54
2019-05-31T09:24:15.229Z,1000.51
2019-05-31T09:25:15.247Z,1000.49
2019-05-31T09:26:15.239Z,1000.51
2019-05-31T09:27:15.241Z,1000.49
2019-05-31T09:28:15.245Z,1000.49
2019-05-31T09:29:15.249Z,1000.44
2019-05-31T09:30:21.742Z,1000.46
2019-05-31T09:31:15.257Z,1000.48
2019-05-31T09:32:15.264Z,1000.44
2019-05-31T09:33:15.274Z,1000.46
2019-05-31T09:34:15.276Z,1000.43
2019-05-31T09:35:15.287Z,1000.44
2019-05-31T09:36:26.539Z,1000.42
2019-05-31T09:37:15.281Z,1000.44
2019-05-31T09:38:15.285Z,1000.47
2019-05-31T09:39:15.292Z,1000.44
2019-05-31T09:40:15.295Z,1000.51
2019-05-31T09:41:15.349Z,1000.48
2019-05-31T09:42:15.304Z,1000.47
2019-05-31T09:43:19.967Z,1000.48
2019-05-31T09:44:15.312Z,1000.5
2019-05-31T09:45:15.315Z,1000.48
2019-05-31T09:46:15.321Z,1000.44
2019-05-31T09:47:15.336Z,1000.44
2019-05-31T09:48:15.336Z,1000.45
2019-05-31T09:49:15.336Z,1000.48
2019-05-31T09:50:15.414Z,1000.45
2019-05-31T09:51:15.345Z,1000.45
2019-05-31T09:52:15.366Z,1000.42
2019-05-31T09:53:15.385Z,1000.42
2019-05-31T09:54:15.357Z,1000.41
2019-05-31T09:55:15.380Z,1000.41
2019-05-31T09:56:15.369Z,1000.37
2019-05-31T09:57:15.373Z,1000.41
2019-05-31T09:58:15.377Z,1000.42
2019-05-31T09:59:15.383Z,1000.41
2019-05-31T10:00:15.423Z,1000.38
2019-05-31T10:01:15.394Z,1000.39
2019-05-31T10:02:15.410Z,1000.37
2019-05-31T10:03:15.408Z,1000.36
2019-05-31T10:04:15.420Z,1000.32
2019-05-31T10:05:15.413Z,1000.33
2019-05-31T10:06:15.418Z,1000.33
2019-05-31T10:07:15.451Z,1000.31
2019-05-31T10:08:15.429Z,1000.3
2019-05-31T10:09:15.440Z,1000.27
2019-05-31T10:10:15.438Z,1000.22
2019-05-31T10:11:15.501Z,1000.24
2019-05-31T10:12:15.447Z,1000.26
2019-05-31T10:13:15.452Z,1000.24
2019-05-31T10:14:15.459Z,1000.21
2019-05-31T10:15:15.460Z,1000.22
2019-05-31T10:16:15.468Z,1000.24
2019-05-31T10:17:15.475Z,1000.23
2019-05-31T10:18:15.525Z,1000.22
2019-05-31T10:19:15.537Z,1000.2
2019-05-31T10:20:29.723Z,1000.23
2019-05-31T10:21:15.539Z,1000.26
2019-05-31T10:22:15.519Z,1000.18
2019-05-31T10:23:15.503Z,1000.21
2019-05-31T10:24:15.512Z,1000.2
2019-05-31T10:25:15.510Z,1000.19
2019-05-31T10:26:15.799Z,1000.12
2019-05-31T10:27:15.522Z,1000.09
2019-05-31T10:28:15.523Z,1000.07
2019-05-31T10:29:15.532Z,1000.05
2019-05-31T10:30:15.538Z,1000.03
2019-05-31T10:31:16.537Z,999.98
2019-05-31T10:32:21.432Z,999.97
2019-05-31T10:33:15.564Z,999.92
2019-05-31T10:34:15.560Z,999.97
2019-05-31T10:35:15.607Z,999.92
2019-05-31T10:36:15.577Z,999.9
2019-05-31T10:37:15.573Z,999.89
2019-05-31T10:38:15.581Z,999.88
2019-05-31T10:39:15.575Z,999.87
2019-05-31T10:40:15.592Z,999.85
2019-05-31T10:41:15.585Z,999.85
2019-05-31T10:42:19.504Z,999.79
2019-05-31T10:43:15.591Z,999.77
2019-05-31T10:44:15.609Z,999.8
2019-05-31T10:45:15.605Z,999.76
2019-05-31T10:46:15.603Z,999.76
2019-05-31T10:47:15.620Z,999.82
2019-05-31T10:48:15.613Z,999.74
2019-05-31T10:49:15.617Z,999.78
2019-05-31T10:50:15.621Z,999.77
2019-05-31T10:51:16.426Z,999.75
2019-05-31T10:52:15.630Z,999.72
2019-05-31T10:53:15.637Z,999.71
2019-05-31T10:54:15.642Z,999.69
2019-05-31T10:55:15.639Z,999.7
2019-05-31T10:56:15.643Z,999.64
2019-05-31T10:57:15.646Z,999.63
2019-05-31T10:58:15.651Z,999.65
2019-05-31T10:59:15.654Z,999.65
2019-05-31T11:00:15.660Z,999.63
2019-05-31T11:01:15.664Z,999.65
2019-05-31T11:02:15.675Z,999.66
2019-05-31T11:03:15.673Z,999.66
2019-05-31T11:04:15.674Z,999.6
2019-05-31T11:05:18.788Z,999.58
2019-05-31T11:06:15.680Z,999.6
2019-05-31T11:07:15.682Z,999.59
2019-05-31T11:08:15.686Z,999.55
2019-05-31T11:09:15.691Z,999.56
2019-05-31T11:10:15.697Z,999.59
2019-05-31T11:11:15.699Z,999.58
2019-05-31T11:12:15.699Z,999.53
2019-05-31T11:13:15.706Z,999.54
2019-05-31T11:14:15.709Z,999.55
2019-05-31T11:15:15.712Z,999.55
2019-05-31T11:16:15.714Z,999.53
2019-05-31T11:17:15.718Z,999.5
2019-05-31T11:18:15.723Z,999.49
2019-05-31T11:19:15.748Z,999.46
2019-05-31T11:20:15.748Z,999.48
2019-05-31T11:21:15.754Z,999.5
2019-05-31T11:22:15.749Z,999.45
2019-05-31T11:23:15.757Z,999.46
2019-05-31T11:24:15.900Z,999.43
2019-05-31T11:25:15.755Z,999.42
2019-05-31T11:26:15.751Z,999.36
2019-05-31T11:27:15.974Z,999.37
2019-05-31T11:28:15.986Z,999.35
2019-05-31T11:29:15.776Z,999.34
2019-05-31T11:30:15.768Z,999.29
2019-05-31T11:31:15.783Z,999.31
2019-05-31T11:32:15.769Z,999.26
2019-05-31T11:33:15.775Z,999.25
2019-05-31T11:34:15.777Z,999.26
2019-05-31T11:35:15.780Z,999.24
2019-05-31T11:36:15.789Z,999.27
2019-05-31T11:37:15.788Z,999.27
2019-05-31T11:38:15.803Z,999.28
2019-05-31T11:39:15.807Z,999.27
2019-05-31T11:40:15.816Z,999.28
2019-05-31T11:41:15.816Z,999.26
2019-05-31T11:42:15.826Z,999.28
2019-05-31T11:43:15.868Z,999.24
2019-05-31T11:44:15.816Z,999.24
2019-05-31T11:45:15.849Z,999.17
2019-05-31T11:46:15.820Z,999.18
2019-05-31T11:47:15.823Z,999.18
2019-05-31T11:48:15.831Z,999.15
2019-05-31T11:49:15.829Z,999.22
2019-05-31T11:50:15.835Z,999.16
2019-05-31T11:51:28.591Z,999.14
2019-05-31T11:52:15.837Z,999.17
2019-05-31T11:53:15.851Z,999.21
2019-05-31T11:54:15.844Z,999.12
2019-05-31T11:55:22.886Z,999.1
2019-05-31T11:56:15.851Z,999.11
2019-05-31T11:57:15.856Z,999.15
2019-05-31T11:58:15.859Z,999.09
2019-05-31T11:59:15.866Z,999.05
2019-05-31T12:00:15.870Z,999.09
2019-05-31T12:01:15.868Z,999.07
2019-05-31T12:02:15.891Z,999.11
2019-05-31T12:03:15.878Z,999.13
2019-05-31T12:04:15.880Z,999.12
2019-05-31T12:05:15.886Z,999.11
2019-05-31T12:06:16.138Z,999.11
2019-05-31T12:07:15.896Z,999.11
2019-05-31T12:08:15.894Z,999.16
2019-05-31T12:09:15.905Z,999.15
2019-05-31T12:10:15.904Z,999.12
2019-05-31T12:11:15.909Z,999.19
2019-05-31T12:12:15.911Z,999.22
2019-05-31T12:13:15.917Z,999.13
2019-05-31T12:14:15.916Z,999.09
2019-05-31T12:15:15.923Z,999.09
2019-05-31T12:16:15.928Z,999.09
2019-05-31T12:17:15.936Z,999.07
2019-05-31T12:18:15.934Z,999.09
2019-05-31T12:19:15.940Z,999.04